Time;durP1;ratioP1;P1;durP2;ratioP2;P2;SDS_P1;SDS_P2;PMS_P1;PMS_P2;Temp;Humidity;BMP_temperature;BMP_pressure;BME280_temperature;BME280_humidity;BME280_pressure;Samples;Min_cycle;Max_cycle;Signal;HPM_P1;HPM_P2
2023/01/12 00:01:20;;;;;;;11.85;2.67;;;;;;;;;;5082813;28;20147;-70
2023/01/12 00:03:47;;;;;;;13.23;2.78;;;;;;;;;;5076820;28;20124;-70
2023/01/12 00:06:14;;;;;;;11.70;2.78;;;;;;;;;;5083717;28;20052;-69
2023/01/12 00:08:40;;;;;;;6.75;2.47;;;;;;;;;;5084003;28;20159;-69
2023/01/12 00:11:07;;;;;;;10.70;2.67;;;;;;;;;;5083721;28;20144;-69
2023/01/12 00:13:33;;;;;;;16.40;3.85;;;;;;;;;;5072748;28;20056;-70
2023/01/12 00:18:46;;;;;;;16.83;3.03;;;;;;;;;;5083873;28;20048;-71
2023/01/12 00:21:13;;;;;;;14.93;2.60;;;;;;;;;;5084352;28;20143;-69
2023/01/12 00:23:41;;;;;;;14.25;2.42;;;;;;;;;;5086370;28;20053;-70
2023/01/12 00:26:07;;;;;;;17.25;2.50;;;;;;;;;;5078461;28;20479;-70
2023/01/12 00:28:35;;;;;;;13.27;3.30;;;;;;;;;;5072938;28;20051;-70
2023/01/12 00:31:02;;;;;;;21.42;3.50;;;;;;;;;;5083445;28;20061;-70
2023/01/12 00:33:28;;;;;;;13.73;3.38;;;;;;;;;;5079091;28;20069;-70
2023/01/12 00:35:54;;;;;;;19.35;2.55;;;;;;;;;;5075894;28;20535;-70
2023/01/12 00:38:20;;;;;;;18.90;4.32;;;;;;;;;;5081259;28;20519;-70
2023/01/12 00:40:47;;;;;;;27.73;3.75;;;;;;;;;;5071632;28;20061;-69
2023/01/12 00:45:58;;;;;;;22.83;3.25;;;;;;;;;;5086795;28;20053;-70
2023/01/12 00:48:25;;;;;;;15.80;2.55;;;;;;;;;;5083104;28;20049;-70
2023/01/12 00:50:51;;;;;;;17.70;3.60;;;;;;;;;;5083886;28;20055;-70
2023/01/12 00:53:17;;;;;;;18.88;3.17;;;;;;;;;;5083796;28;20052;-71
2023/01/12 00:55:44;;;;;;;19.08;2.83;;;;;;;;;;5077297;28;20049;-69
2023/01/12 00:58:11;;;;;;;23.67;3.88;;;;;;;;;;5084105;28;20056;-70
2023/01/12 01:00:37;;;;;;;14.52;2.92;;;;;;;;;;5080987;28;20062;-72
2023/01/12 01:03:03;;;;;;;19.75;2.97;;;;;;;;;;5083528;28;20043;-71
2023/01/12 01:05:30;;;;;;;18.02;3.67;;;;;;;;;;5083534;28;20048;-71
2023/01/12 01:07:56;;;;;;;19.65;4.30;;;;;;;;;;5079268;28;20065;-70
2023/01/12 01:10:22;;;;;;;17.70;3.35;;;;;;;;;;5083521;28;20102;-70
2023/01/12 01:12:49;;;;;;;18.80;3.47;;;;;;;;;;5083159;28;20059;-70
2023/01/12 01:15:15;;;;;;;22.45;4.07;;;;;;;;;;5084796;28;20056;-70
2023/01/12 01:17:41;;;;;;;18.85;3.30;;;;;;;;;;5074095;28;20099;-70
2023/01/12 01:20:08;;;;;;;21.60;3.97;;;;;;;;;;5075398;28;20068;-70
2023/01/12 01:22:35;;;;;;;21.58;3.88;;;;;;;;;;5082215;28;20048;-70
2023/01/12 01:25:01;;;;;;;15.27;3.55;;;;;;;;;;5081942;28;20053;-71
2023/01/12 01:27:27;;;;;;;16.83;3.10;;;;;;;;;;5081688;28;20059;-71
2023/01/12 01:29:54;;;;;;;19.17;4.85;;;;;;;;;;5083846;28;20052;-71
2023/01/12 01:32:20;;;;;;;13.85;3.58;;;;;;;;;;5068283;28;20048;-71
2023/01/12 01:34:47;;;;;;;17.38;4.28;;;;;;;;;;5083887;28;20088;-71
2023/01/12 01:37:13;;;;;;;22.45;4.65;;;;;;;;;;5081969;28;20056;-70
2023/01/12 01:39:40;;;;;;;30.90;4.95;;;;;;;;;;5084498;28;20503;-70
2023/01/12 01:42:26;;;;;;;23.90;4.72;;;;;;;;;;5086668;28;20152;-71
2023/01/12 01:44:53;;;;;;;19.83;4.15;;;;;;;;;;5082499;28;20053;-71
2023/01/12 01:47:22;;;;;;;20.50;4.50;;;;;;;;;;5088140;28;20092;-70
2023/01/12 01:49:51;;;;;;;18.05;4.10;;;;;;;;;;5086855;28;20132;-71
2023/01/12 01:52:20;;;;;;;17.00;4.45;;;;;;;;;;5081867;28;20053;-71
2023/01/12 01:54:58;;;;;;;24.98;4.63;;;;;;;;;;5089561;28;20128;-71
2023/01/12 01:57:27;;;;;;;20.88;4.10;;;;;;;;;;5085166;28;20049;-70
2023/01/12 01:59:55;;;;;;;23.77;4.32;;;;;;;;;;5072234;28;20147;-70
2023/01/12 02:02:23;;;;;;;18.38;4.95;;;;;;;;;;5082562;28;20052;-71
2023/01/12 02:04:49;;;;;;;11.18;3.40;;;;;;;;;;5090472;27;20053;-70
2023/01/12 02:07:15;;;;;;;19.77;4.65;;;;;;;;;;5084213;28;20048;-69
2023/01/12 02:09:43;;;;;;;21.05;4.63;;;;;;;;;;5086385;28;20059;-69
2023/01/12 02:17:52;;;;;;;18.08;3.75;;;;;;;;;;5086865;28;20056;-70
2023/01/12 02:20:28;;;;;;;11.20;3.40;;;;;;;;;;5084785;28;20056;-69
2023/01/12 02:22:54;;;;;;;13.13;3.17;;;;;;;;;;5083956;28;20352;-70
2023/01/12 02:25:36;;;;;;;11.50;3.13;;;;;;;;;;5084449;28;20065;-70
2023/01/12 02:28:20;;;;;;;10.60;3.00;;;;;;;;;;5084123;28;20528;-70
2023/01/12 02:31:00;;;;;;;13.68;2.75;;;;;;;;;;5085432;28;20049;-71
2023/01/12 02:33:40;;;;;;;9.30;2.38;;;;;;;;;;5076686;28;20053;-70
2023/01/12 02:36:36;;;;;;;12.65;3.03;;;;;;;;;;5082294;28;20558;-70
2023/01/12 02:39:09;;;;;;;16.30;3.13;;;;;;;;;;5072879;28;20063;-70
2023/01/12 02:44:54;;;;;;;13.77;3.53;;;;;;;;;;5060078;28;20196;-70
2023/01/12 02:47:29;;;;;;;10.07;2.33;;;;;;;;;;5063511;28;20053;-71
2023/01/12 02:49:58;;;;;;;12.52;2.33;;;;;;;;;;5062122;28;20053;-70
2023/01/12 02:52:26;;;;;;;9.82;2.30;;;;;;;;;;5063118;28;20049;-72
2023/01/12 02:54:53;;;;;;;8.77;2.22;;;;;;;;;;5056336;28;20168;-71
2023/01/12 02:57:21;;;;;;;9.90;1.83;;;;;;;;;;5057920;28;20565;-70
2023/01/12 02:59:49;;;;;;;7.93;1.80;;;;;;;;;;5065416;28;20115;-70
2023/01/12 03:02:18;;;;;;;5.85;1.80;;;;;;;;;;5067695;28;20086;-70
2023/01/12 03:04:44;;;;;;;4.85;1.58;;;;;;;;;;5061728;28;20467;-69
2023/01/12 03:07:32;;;;;;;5.50;1.48;;;;;;;;;;5066104;28;20095;-68
2023/01/12 03:10:04;;;;;;;7.55;2.53;;;;;;;;;;4995302;28;20046;-69
2023/01/12 03:12:33;;;;;;;9.68;1.98;;;;;;;;;;5058175;28;20055;-70
2023/01/12 03:15:03;;;;;;;5.85;1.50;;;;;;;;;;5061965;28;20590;-70
2023/01/12 03:17:32;;;;;;;10.52;1.88;;;;;;;;;;5062049;28;20521;-70
2023/01/12 03:20:01;;;;;;;9.52;2.35;;;;;;;;;;5068723;28;20885;-69
2023/01/12 03:22:29;;;;;;;8.60;2.35;;;;;;;;;;5071916;28;20415;-70
2023/01/12 03:24:57;;;;;;;7.80;2.22;;;;;;;;;;5079841;28;20049;-70
2023/01/12 03:27:28;;;;;;;13.10;2.80;;;;;;;;;;5074753;28;20052;-69
2023/01/12 03:29:59;;;;;;;9.75;2.38;;;;;;;;;;5078299;28;20052;-69
2023/01/12 03:32:26;;;;;;;11.18;2.72;;;;;;;;;;5080307;28;20144;-69
2023/01/12 03:34:53;;;;;;;8.77;1.92;;;;;;;;;;5072963;28;20518;-70
2023/01/12 03:37:39;;;;;;;11.00;2.10;;;;;;;;;;5079023;28;20060;-70
2023/01/12 03:40:08;;;;;;;10.77;3.38;;;;;;;;;;5094091;28;20055;-70
2023/01/12 03:42:56;;;;;;;15.52;3.38;;;;;;;;;;5084371;28;20060;-68
2023/01/12 03:45:22;;;;;;;10.98;3.28;;;;;;;;;;5066745;28;20079;-69
2023/01/12 03:47:55;;;;;;;10.13;3.05;;;;;;;;;;5085628;28;20506;-70
2023/01/12 03:50:26;;;;;;;7.32;3.05;;;;;;;;;;5086974;27;20052;-69
2023/01/12 03:52:53;;;;;;;7.35;2.95;;;;;;;;;;5082735;28;21821;-69
2023/01/12 03:55:22;;;;;;;6.88;2.33;;;;;;;;;;5084534;28;20091;-70
2023/01/12 03:57:49;;;;;;;7.68;2.85;;;;;;;;;;5082345;28;20132;-69
2023/01/12 04:00:16;;;;;;;5.53;2.15;;;;;;;;;;5075887;28;20049;-70
2023/01/12 04:02:43;;;;;;;8.95;2.35;;;;;;;;;;5077047;28;20048;-69
2023/01/12 04:05:11;;;;;;;12.32;3.08;;;;;;;;;;5085187;28;20534;-70
2023/01/12 04:07:38;;;;;;;6.00;2.45;;;;;;;;;;5082222;28;20087;-69
2023/01/12 04:10:04;;;;;;;9.88;2.33;;;;;;;;;;5084816;28;20522;-69
2023/01/12 04:12:31;;;;;;;5.50;2.35;;;;;;;;;;5078077;28;20514;-70
2023/01/12 04:14:57;;;;;;;6.40;1.90;;;;;;;;;;5086017;28;20586;-70
2023/01/12 04:17:24;;;;;;;1.83;1.58;;;;;;;;;;5092568;27;20107;-69
2023/01/12 04:19:51;;;;;;;5.00;2.15;;;;;;;;;;5083933;28;20052;-70
2023/01/12 04:25:03;;;;;;;4.50;1.33;;;;;;;;;;5079232;28;20911;-71
2023/01/12 04:27:29;;;;;;;6.38;1.50;;;;;;;;;;5083387;28;20048;-71
2023/01/12 04:29:56;;;;;;;6.25;1.73;;;;;;;;;;5081865;28;20063;-70
2023/01/12 04:32:23;;;;;;;4.70;1.75;;;;;;;;;;5082427;28;20147;-72
2023/01/12 04:34:49;;;;;;;8.27;2.05;;;;;;;;;;5083656;28;20954;-71
2023/01/12 04:37:15;;;;;;;8.32;2.00;;;;;;;;;;5081625;28;20574;-70
2023/01/12 04:39:42;;;;;;;8.10;2.10;;;;;;;;;;5078986;28;20045;-71
2023/01/12 04:42:59;;;;;;;7.65;1.67;;;;;;;;;;5082155;28;20056;-70
2023/01/12 04:44:55;;;;;;;6.35;1.70;;;;;;;;;;5084220;28;20062;-70
2023/01/12 04:47:21;;;;;;;13.63;2.67;;;;;;;;;;5081523;28;20546;-69
2023/01/12 04:49:48;;;;;;;3.85;1.63;;;;;;;;;;5083512;28;20636;-70
2023/01/12 04:52:14;;;;;;;6.40;1.50;;;;;;;;;;5072786;28;20045;-71
2023/01/12 04:54:40;;;;;;;6.07;1.90;;;;;;;;;;5086756;28;20059;-70
2023/01/12 04:57:07;;;;;;;4.05;1.52;;;;;;;;;;5084923;27;20476;-70
2023/01/12 04:59:33;;;;;;;4.28;1.33;;;;;;;;;;5083368;28;20577;-70
2023/01/12 05:01:59;;;;;;;3.88;1.60;;;;;;;;;;5081755;28;20063;-71
2023/01/12 05:04:26;;;;;;;4.50;1.52;;;;;;;;;;5071971;28;20055;-70
2023/01/12 05:06:52;;;;;;;2.60;1.25;;;;;;;;;;5074283;28;20053;-71
2023/01/12 05:12:04;;;;;;;5.78;1.80;;;;;;;;;;5084918;27;20044;-72
2023/01/12 05:14:30;;;;;;;6.10;1.80;;;;;;;;;;5084506;28;20685;-72
2023/01/12 05:16:58;;;;;;;6.80;1.85;;;;;;;;;;5084921;28;20575;-71
2023/01/12 05:19:24;;;;;;;3.50;1.80;;;;;;;;;;5082760;28;20140;-71
2023/01/12 05:21:51;;;;;;;6.82;1.67;;;;;;;;;;5082940;28;20056;-70
2023/01/12 05:24:17;;;;;;;2.63;1.33;;;;;;;;;;5073883;28;20053;-71
2023/01/12 05:26:43;;;;;;;7.22;1.65;;;;;;;;;;5085085;28;20135;-70
2023/01/12 05:29:10;;;;;;;2.30;1.35;;;;;;;;;;5074417;28;20057;-71
2023/01/12 05:31:37;;;;;;;5.30;1.90;;;;;;;;;;5082387;28;20049;-71
2023/01/12 05:34:03;;;;;;;3.42;1.38;;;;;;;;;;5083814;28;20520;-70
2023/01/12 05:36:29;;;;;;;5.88;1.58;;;;;;;;;;5084793;28;20048;-71
2023/01/12 05:38:56;;;;;;;4.85;1.45;;;;;;;;;;5083852;28;20048;-71
2023/01/12 05:41:22;;;;;;;3.53;1.48;;;;;;;;;;5083287;28;20528;-70
2023/01/12 05:43:49;;;;;;;4.80;1.50;;;;;;;;;;5083241;28;20052;-71
2023/01/12 05:46:18;;;;;;;4.22;1.50;;;;;;;;;;5083203;28;20052;-71
2023/01/12 05:48:44;;;;;;;2.55;0.98;;;;;;;;;;5080990;28;20281;-72
2023/01/12 05:51:11;;;;;;;4.25;1.25;;;;;;;;;;5083050;27;20067;-70
2023/01/12 05:53:38;;;;;;;4.05;1.83;;;;;;;;;;5078331;28;20049;-71
2023/01/12 05:56:09;;;;;;;4.32;1.60;;;;;;;;;;5097423;27;20532;-70
2023/01/12 05:58:36;;;;;;;3.20;1.40;;;;;;;;;;5082121;28;20474;-70
2023/01/12 06:01:09;;;;;;;2.33;1.15;;;;;;;;;;5080270;28;20052;-69
2023/01/12 06:03:36;;;;;;;1.73;1.13;;;;;;;;;;5084256;28;20060;-71
2023/01/12 06:06:03;;;;;;;3.72;1.17;;;;;;;;;;5083987;28;20493;-70
2023/01/12 06:08:29;;;;;;;3.03;1.20;;;;;;;;;;5078046;28;20053;-71
2023/01/12 06:10:58;;;;;;;2.47;1.00;;;;;;;;;;5084123;28;20052;-71
2023/01/12 06:16:10;;;;;;;2.05;1.15;;;;;;;;;;5083223;28;20075;-71
2023/01/12 06:18:37;;;;;;;5.43;0.95;;;;;;;;;;5080767;28;20155;-70
2023/01/12 06:21:04;;;;;;;1.77;1.00;;;;;;;;;;5083917;28;20055;-71
2023/01/12 06:23:31;;;;;;;2.92;0.90;;;;;;;;;;5083888;28;20573;-71
2023/01/12 06:26:04;;;;;;;2.72;1.08;;;;;;;;;;5083686;28;20056;-70
2023/01/12 06:28:31;;;;;;;1.27;0.80;;;;;;;;;;5082689;28;20053;-71
2023/01/12 06:30:58;;;;;;;2.75;0.90;;;;;;;;;;5084416;28;20058;-70
2023/01/12 06:33:25;;;;;;;2.08;0.93;;;;;;;;;;5071230;28;20051;-70
2023/01/12 06:35:52;;;;;;;2.10;0.77;;;;;;;;;;5083774;28;20060;-70
2023/01/12 06:38:19;;;;;;;0.95;0.70;;;;;;;;;;5086563;28;20055;-70
2023/01/12 06:40:45;;;;;;;1.10;0.80;;;;;;;;;;5087126;28;20136;-71
2023/01/12 06:43:12;;;;;;;2.97;1.10;;;;;;;;;;5086880;28;20088;-71
2023/01/12 06:45:39;;;;;;;1.63;1.00;;;;;;;;;;5087455;28;20049;-70
2023/01/12 06:48:05;;;;;;;1.25;0.80;;;;;;;;;;5083143;28;20059;-70
2023/01/12 06:50:32;;;;;;;3.13;0.85;;;;;;;;;;5075587;28;20059;-70
2023/01/12 06:52:59;;;;;;;1.90;1.00;;;;;;;;;;5080365;28;20076;-69
2023/01/12 06:55:25;;;;;;;2.40;0.90;;;;;;;;;;5078243;28;20056;-71
2023/01/12 06:57:52;;;;;;;0.60;0.60;;;;;;;;;;5071805;28;20122;-71
2023/01/12 07:00:18;;;;;;;2.10;1.02;;;;;;;;;;5075768;28;20049;-72
2023/01/12 07:02:48;;;;;;;2.33;0.98;;;;;;;;;;5082861;28;20052;-72
2023/01/12 07:05:14;;;;;;;1.30;0.95;;;;;;;;;;5080018;28;20497;-73
2023/01/12 07:07:40;;;;;;;3.17;0.90;;;;;;;;;;5086687;28;20051;-71
2023/01/12 07:10:07;;;;;;;2.22;0.90;;;;;;;;;;5083746;28;20051;-72
2023/01/12 07:12:34;;;;;;;1.00;1.00;;;;;;;;;;5089129;27;20060;-71
2023/01/12 07:15:00;;;;;;;3.25;1.20;;;;;;;;;;5090795;28;20087;-72
2023/01/12 07:17:26;;;;;;;4.07;1.13;;;;;;;;;;5085878;27;20131;-71
2023/01/12 07:19:52;;;;;;;3.42;1.40;;;;;;;;;;5089842;28;20090;-72
2023/01/12 07:22:19;;;;;;;2.05;1.20;;;;;;;;;;5092706;28;20056;-73
2023/01/12 07:24:45;;;;;;;1.65;1.10;;;;;;;;;;5085049;28;20057;-72
2023/01/12 07:27:11;;;;;;;5.93;2.78;;;;;;;;;;5086267;28;20053;-71
2023/01/12 07:29:38;;;;;;;3.92;1.27;;;;;;;;;;5085800;28;20426;-72
2023/01/12 07:32:04;;;;;;;5.15;1.50;;;;;;;;;;5085724;28;20064;-72
2023/01/12 07:34:31;;;;;;;5.85;1.60;;;;;;;;;;5078351;28;20106;-71
2023/01/12 07:36:57;;;;;;;7.35;1.90;;;;;;;;;;5086271;28;20083;-71
2023/01/12 07:39:24;;;;;;;4.88;2.05;;;;;;;;;;5078703;28;20128;-70
2023/01/12 07:44:35;;;;;;;13.00;2.47;;;;;;;;;;5077660;28;20040;-70
2023/01/12 07:47:01;;;;;;;5.25;2.08;;;;;;;;;;5090587;28;20601;-70
2023/01/12 07:49:27;;;;;;;9.85;2.50;;;;;;;;;;5092898;28;20162;-71
2023/01/12 07:51:54;;;;;;;5.35;2.38;;;;;;;;;;5102429;27;20382;-71
2023/01/12 07:54:21;;;;;;;13.35;2.25;;;;;;;;;;5106357;27;20052;-70
2023/01/12 07:56:47;;;;;;;10.27;2.45;;;;;;;;;;5090250;27;20048;-70
2023/01/12 07:59:14;;;;;;;11.00;2.58;;;;;;;;;;5086250;28;20123;-70
2023/01/12 08:01:40;;;;;;;12.73;3.00;;;;;;;;;;5087452;28;20885;-70
2023/01/12 08:04:07;;;;;;;13.55;2.88;;;;;;;;;;5073481;28;20056;-71
2023/01/12 08:06:34;;;;;;;16.00;3.85;;;;;;;;;;5074912;28;20144;-70
2023/01/12 08:09:01;;;;;;;7.63;1.98;;;;;;;;;;5092797;27;20047;-70
2023/01/12 08:11:27;;;;;;;7.28;1.98;;;;;;;;;;5092913;27;20048;-71
2023/01/12 08:13:54;;;;;;;18.58;3.22;;;;;;;;;;5087929;28;20479;-71
2023/01/12 08:16:26;;;;;;;9.23;1.98;;;;;;;;;;5100614;27;20368;-71
2023/01/12 08:18:54;;;;;;;13.73;2.58;;;;;;;;;;5099420;27;20463;-70
2023/01/12 08:21:23;;;;;;;14.63;2.72;;;;;;;;;;5102100;27;20052;-70
2023/01/12 08:23:52;;;;;;;12.95;2.20;;;;;;;;;;5071938;28;20527;-69
2023/01/12 08:26:22;;;;;;;12.35;2.28;;;;;;;;;;5071917;28;20053;-70
2023/01/12 08:28:51;;;;;;;11.00;2.88;;;;;;;;;;5070679;28;20126;-70
2023/01/12 08:31:19;;;;;;;9.45;2.00;;;;;;;;;;5084043;27;20527;-72
2023/01/12 08:33:45;;;;;;;12.00;2.40;;;;;;;;;;5086308;28;20056;-72
2023/01/12 08:36:13;;;;;;;13.25;2.42;;;;;;;;;;5082669;28;20140;-70
2023/01/12 08:38:40;;;;;;;9.88;2.13;;;;;;;;;;5068307;28;20053;-71
2023/01/12 08:44:01;;;;;;;13.77;2.35;;;;;;;;;;5065500;28;20530;-72
2023/01/12 08:46:28;;;;;;;;;;;;;;;;;;5075404;28;20080;-70
2023/01/12 08:48:54;;;;;;;7.25;1.95;;;;;;;;;;5081531;28;46571;-71
2023/01/12 08:51:20;;;;;;;10.77;1.90;;;;;;;;;;5068689;28;20053;-70
2023/01/12 08:53:47;;;;;;;9.65;2.60;;;;;;;;;;5080596;28;20783;-70
2023/01/12 08:56:14;;;;;;;11.90;2.30;;;;;;;;;;5085591;28;20056;-70
2023/01/12 08:58:41;;;;;;;10.27;2.17;;;;;;;;;;5080019;28;20569;-71
2023/01/12 09:01:09;;;;;;;14.77;3.13;;;;;;;;;;5085394;28;20086;-70
2023/01/12 09:03:36;;;;;;;15.75;2.78;;;;;;;;;;5077715;28;20126;-70
2023/01/12 09:06:10;;;;;;;13.60;3.60;;;;;;;;;;5063033;28;20132;-70
2023/01/12 09:08:37;;;;;;;15.77;2.88;;;;;;;;;;5079270;28;20062;-70
2023/01/12 09:11:04;;;;;;;10.70;2.28;;;;;;;;;;5085649;28;20554;-70
2023/01/12 09:13:33;;;;;;;14.10;3.25;;;;;;;;;;5082937;28;20052;-71
2023/01/12 09:16:03;;;;;;;12.13;2.33;;;;;;;;;;5095840;28;20086;-70
2023/01/12 09:18:38;;;;;;;15.23;3.28;;;;;;;;;;5098882;27;20064;-70
2023/01/12 09:21:06;;;;;;;21.73;3.17;;;;;;;;;;5075706;28;20057;-71
2023/01/12 09:23:33;;;;;;;22.70;3.05;;;;;;;;;;5079159;28;20071;-71
2023/01/12 09:26:03;;;;;;;17.90;3.20;;;;;;;;;;5073384;28;20472;-70
2023/01/12 09:28:30;;;;;;;21.70;3.25;;;;;;;;;;5079827;27;20082;-70
2023/01/12 09:31:00;;;;;;;14.43;2.72;;;;;;;;;;5078151;28;20456;-72
2023/01/12 09:33:27;;;;;;;10.38;2.50;;;;;;;;;;5084009;28;20086;-71
2023/01/12 09:35:58;;;;;;;19.98;3.50;;;;;;;;;;5070748;28;20061;-70
2023/01/12 09:38:24;;;;;;;17.95;4.40;;;;;;;;;;5074488;28;20098;-69
2023/01/12 09:40:51;;;;;;;13.75;2.97;;;;;;;;;;5069568;28;20056;-69
2023/01/12 09:46:57;;;;;;;20.17;4.03;;;;;;;;;;5084847;28;20877;-70
2023/01/12 09:49:04;;;;;;;26.77;3.83;;;;;;;;;;5083216;28;20059;-70
2023/01/12 09:51:33;;;;;;;24.23;4.97;;;;;;;;;;5089277;28;20113;-71
2023/01/12 09:54:00;;;;;;;20.90;5.32;;;;;;;;;;5104674;27;20054;-69
2023/01/12 09:56:29;;;;;;;19.90;3.65;;;;;;;;;;5083529;27;20080;-70
2023/01/12 09:59:15;;;;;;;21.35;4.47;;;;;;;;;;5078933;28;20143;-70
2023/01/12 10:01:44;;;;;;;16.80;3.03;;;;;;;;;;5069038;28;20550;-71
2023/01/12 10:04:11;;;;;;;21.33;3.65;;;;;;;;;;5074962;28;20052;-70
2023/01/12 10:06:38;;;;;;;21.05;3.92;;;;;;;;;;5068967;28;20053;-71
2023/01/12 10:09:16;;;;;;;25.38;3.75;;;;;;;;;;5073497;28;20064;-71
2023/01/12 10:11:42;;;;;;;18.50;4.13;;;;;;;;;;5087522;28;20048;-71
2023/01/12 10:14:27;;;;;;;25.75;4.20;;;;;;;;;;5089223;28;20036;-70
2023/01/12 10:17:15;;;;;;;14.88;3.13;;;;;;;;;;5087865;28;20114;-70
2023/01/12 10:19:48;;;;;;;20.83;3.78;;;;;;;;;;5085115;28;20049;-70
2023/01/12 10:22:16;;;;;;;19.42;3.10;;;;;;;;;;5071249;28;20049;-69
2023/01/12 10:24:43;;;;;;;19.42;3.83;;;;;;;;;;5081630;27;20060;-69
2023/01/12 10:27:13;;;;;;;28.95;5.22;;;;;;;;;;5088069;28;20067;-70
2023/01/12 10:29:40;;;;;;;18.85;3.33;;;;;;;;;;5079339;28;20144;-69
2023/01/12 10:32:09;;;;;;;16.70;3.30;;;;;;;;;;5075114;28;20135;-69
2023/01/12 10:34:51;;;;;;;18.30;2.72;;;;;;;;;;5087466;28;20045;-69
2023/01/12 10:37:17;;;;;;;19.40;4.15;;;;;;;;;;5088840;28;20518;-69
2023/01/12 10:39:44;;;;;;;16.05;3.35;;;;;;;;;;5086538;27;20613;-71
2023/01/12 10:43:17;;;;;;;13.35;3.10;;;;;;;;;;5089879;28;20069;-69
2023/01/12 10:45:28;;;;;;;17.27;3.28;;;;;;;;;;5073424;28;20057;-71
2023/01/12 10:47:56;;;;;;;;;;;;;;;;;;5066775;28;20555;-68
2023/01/12 10:50:26;;;;;;;14.20;3.22;;;;;;;;;;5078860;28;41341;-72
2023/01/12 10:52:54;;;;;;;22.65;4.05;;;;;;;;;;5078040;28;20510;-70
2023/01/12 10:55:22;;;;;;;11.68;1.92;;;;;;;;;;5107415;27;20131;-71
2023/01/12 10:57:49;;;;;;;12.95;2.72;;;;;;;;;;5101529;27;20056;-71
2023/01/12 11:00:20;;;;;;;14.57;2.00;;;;;;;;;;5078039;28;20056;-71
2023/01/12 11:02:47;;;;;;;19.63;3.38;;;;;;;;;;5086547;27;20054;-71
2023/01/12 11:05:29;;;;;;;10.70;2.70;;;;;;;;;;5077280;27;20049;-70
2023/01/12 11:07:55;;;;;;;13.80;2.60;;;;;;;;;;5079464;28;20056;-70
2023/01/12 11:10:28;;;;;;;10.07;2.20;;;;;;;;;;5086890;28;20127;-70
2023/01/12 11:12:59;;;;;;;9.60;2.72;;;;;;;;;;5085397;28;20048;-70
2023/01/12 11:15:27;;;;;;;9.13;2.30;;;;;;;;;;5078279;28;20632;-71
2023/01/12 11:18:02;;;;;;;6.00;1.98;;;;;;;;;;5076231;28;20139;-71
2023/01/12 11:20:31;;;;;;;12.20;2.42;;;;;;;;;;5079390;28;20061;-70
2023/01/12 11:23:00;;;;;;;13.43;2.28;;;;;;;;;;5077700;28;20067;-71
2023/01/12 11:25:28;;;;;;;8.48;2.75;;;;;;;;;;5069058;28;20063;-70
2023/01/12 11:27:57;;;;;;;13.93;2.97;;;;;;;;;;5071979;28;20052;-70
2023/01/12 11:30:29;;;;;;;21.80;3.45;;;;;;;;;;5081193;28;20564;-71
2023/01/12 11:33:07;;;;;;;15.50;2.60;;;;;;;;;;5083267;28;20147;-72
2023/01/12 11:35:43;;;;;;;10.27;2.78;;;;;;;;;;5074878;28;20064;-70
2023/01/12 11:38:17;;;;;;;9.90;3.15;;;;;;;;;;5085707;28;20114;-71
2023/01/12 11:40:44;;;;;;;13.70;3.15;;;;;;;;;;5076341;28;20841;-69
2023/01/12 11:46:20;;;;;;;17.63;2.88;;;;;;;;;;5078555;27;20517;-71
2023/01/12 11:49:10;;;;;;;16.67;3.08;;;;;;;;;;5090426;28;20048;-71
2023/01/12 11:51:37;;;;;;;19.25;3.08;;;;;;;;;;5077862;28;20139;-70
2023/01/12 11:54:05;;;;;;;17.77;3.30;;;;;;;;;;5070797;28;20071;-71
2023/01/12 11:56:50;;;;;;;15.10;2.22;;;;;;;;;;5080808;28;20045;-71
2023/01/12 11:59:16;;;;;;;15.17;2.87;;;;;;;;;;5087431;28;20051;-71
2023/01/12 12:01:48;;;;;;;18.80;3.67;;;;;;;;;;5079407;28;20338;-70
2023/01/12 12:04:33;;;;;;;11.45;2.92;;;;;;;;;;5086084;28;20494;-71
2023/01/12 12:07:05;;;;;;;14.17;4.13;;;;;;;;;;5086383;28;20488;-70
2023/01/12 12:09:38;;;;;;;10.90;2.88;;;;;;;;;;5069802;28;20059;-72
2023/01/12 12:12:11;;;;;;;9.70;2.30;;;;;;;;;;5106669;27;20048;-72
2023/01/12 12:14:49;;;;;;;7.25;2.42;;;;;;;;;;5084959;28;20498;-72
2023/01/12 12:17:18;;;;;;;7.15;2.33;;;;;;;;;;5079077;28;20148;-73
2023/01/12 12:19:57;;;;;;;8.98;4.28;;;;;;;;;;5088111;28;20053;-75
2023/01/12 12:22:29;;;;;;;12.68;8.45;;;;;;;;;;5077441;28;20059;-73
2023/01/12 12:25:12;;;;;;;12.93;3.55;;;;;;;;;;5077490;28;20428;-73
2023/01/12 12:27:50;;;;;;;6.15;1.58;;;;;;;;;;5084059;27;20109;-73
2023/01/12 12:30:20;;;;;;;10.07;2.50;;;;;;;;;;5080931;27;20507;-74
2023/01/12 12:32:58;;;;;;;6.70;1.55;;;;;;;;;;5080755;28;20059;-73
2023/01/12 12:35:25;;;;;;;9.80;2.20;;;;;;;;;;5086164;28;20078;-71
2023/01/12 12:37:52;;;;;;;11.23;2.00;;;;;;;;;;5075713;28;20049;-72
2023/01/12 12:45:15;;;;;;;14.45;2.63;;;;;;;;;;5088790;28;20056;-72
2023/01/12 12:46:23;;;;;;;10.60;1.63;;;;;;;;;;5072494;28;20139;-72
2023/01/12 12:48:57;;;;;;;10.55;1.88;;;;;;;;;;5073249;28;20049;-72
2023/01/12 12:51:24;;;;;;;7.82;2.58;;;;;;;;;;5077516;28;20127;-72
2023/01/12 12:53:53;;;;;;;9.15;2.10;;;;;;;;;;5083307;28;20056;-70
2023/01/12 12:56:21;;;;;;;6.45;2.40;;;;;;;;;;5071033;28;20055;-73
2023/01/12 12:58:51;;;;;;;8.18;2.22;;;;;;;;;;5077620;28;20045;-71
2023/01/12 13:01:23;;;;;;;4.47;1.90;;;;;;;;;;5073055;28;20072;-70
2023/01/12 13:03:51;;;;;;;8.90;2.78;;;;;;;;;;5065211;28;20053;-71
2023/01/12 13:06:17;;;;;;;3.20;1.23;;;;;;;;;;5082174;28;20368;-75
2023/01/12 13:08:44;;;;;;;8.63;1.77;;;;;;;;;;5077934;28;20143;-71
2023/01/12 13:11:11;;;;;;;7.93;1.85;;;;;;;;;;5076365;28;20052;-70
2023/01/12 13:13:55;;;;;;;5.07;1.35;;;;;;;;;;5075144;28;20501;-74
2023/01/12 13:16:21;;;;;;;6.65;1.67;;;;;;;;;;5079592;28;20563;-73
2023/01/12 13:18:47;;;;;;;7.20;1.95;;;;;;;;;;5080308;28;20044;-73
2023/01/12 13:21:26;;;;;;;2.80;1.20;;;;;;;;;;5071885;27;20048;-73
2023/01/12 13:23:53;;;;;;;1.35;0.80;;;;;;;;;;5077345;28;20056;-71
2023/01/12 13:26:25;;;;;;;0.85;0.73;;;;;;;;;;5064575;28;20048;-70
2023/01/12 13:29:11;;;;;;;2.05;0.90;;;;;;;;;;5075124;28;20056;-71
2023/01/12 13:31:37;;;;;;;0.80;0.75;;;;;;;;;;5105634;28;20058;-70
2023/01/12 13:34:23;;;;;;;1.83;0.70;;;;;;;;;;5105150;27;20052;-71
2023/01/12 13:37:18;;;;;;;2.00;0.68;;;;;;;;;;5094856;28;20071;-70
2023/01/12 13:39:56;;;;;;;1.13;0.70;;;;;;;;;;5093495;27;20045;-69
2023/01/12 13:45:16;;;;;;;1.15;0.60;;;;;;;;;;5088796;28;20063;-71
2023/01/12 13:47:43;;;;;;;1.55;0.90;;;;;;;;;;5108866;27;20502;-72
2023/01/12 13:50:18;;;;;;;2.58;0.93;;;;;;;;;;5098801;27;20045;-73
2023/01/12 13:52:54;;;;;;;1.00;0.90;;;;;;;;;;5088795;28;20057;-74
2023/01/12 13:55:21;;;;;;;2.15;0.90;;;;;;;;;;5085429;28;20048;-71
2023/01/12 13:57:55;;;;;;;2.42;1.13;;;;;;;;;;5073751;28;20049;-71
2023/01/12 14:00:22;;;;;;;1.13;1.02;;;;;;;;;;5076392;28;20182;-72
2023/01/12 14:02:49;;;;;;;1.58;0.80;;;;;;;;;;5069232;28;20099;-71
2023/01/12 14:05:23;;;;;;;0.85;0.80;;;;;;;;;;5088169;28;20143;-71
2023/01/12 14:07:58;;;;;;;0.73;0.65;;;;;;;;;;5080618;28;20056;-71
2023/01/12 14:10:25;;;;;;;;;;;;;;;;;;5067243;28;20063;-71
2023/01/12 14:13:10;;;;;;;2.45;0.90;;;;;;;;;;5086641;28;45515;-71
2023/01/12 14:18:25;;;;;;;2.13;0.88;;;;;;;;;;5068120;28;20079;-70
2023/01/12 14:20:56;;;;;;;1.98;0.77;;;;;;;;;;5085535;28;20118;-70
2023/01/12 14:23:25;;;;;;;3.90;1.02;;;;;;;;;;5102084;27;20106;-70
2023/01/12 14:26:12;;;;;;;2.13;0.73;;;;;;;;;;5108185;27;20525;-70
2023/01/12 14:28:41;;;;;;;3.30;0.75;;;;;;;;;;5085939;28;20048;-70
2023/01/12 14:31:17;;;;;;;1.25;0.70;;;;;;;;;;5087755;28;20044;-70
2023/01/12 14:33:47;;;;;;;1.77;0.80;;;;;;;;;;5088070;28;20502;-71
2023/01/12 14:36:16;;;;;;;1.85;0.90;;;;;;;;;;5085425;28;20041;-71
2023/01/12 14:38:43;;;;;;;0.95;0.80;;;;;;;;;;5088289;28;20069;-72
2023/01/12 14:46:52;;;;;;;1.50;0.80;;;;;;;;;;5053829;28;20060;-71
2023/01/12 14:49:20;;;;;;;1.30;0.93;;;;;;;;;;5050729;28;20049;-72
2023/01/12 14:51:59;;;;;;;1.70;0.77;;;;;;;;;;5061725;28;20158;-72
2023/01/12 14:54:26;;;;;;;1.40;0.77;;;;;;;;;;5058803;28;20064;-71
2023/01/12 14:56:57;;;;;;;2.40;0.90;;;;;;;;;;5054041;28;20060;-72
2023/01/12 14:59:29;;;;;;;1.55;1.00;;;;;;;;;;5064021;28;20049;-71
2023/01/12 15:02:13;;;;;;;3.08;1.15;;;;;;;;;;5056937;28;20048;-70
2023/01/12 15:04:52;;;;;;;2.55;1.38;;;;;;;;;;5055558;28;20625;-71
2023/01/12 15:07:19;;;;;;;4.43;1.50;;;;;;;;;;5046862;28;20053;-71
2023/01/12 15:09:53;;;;;;;1.65;1.13;;;;;;;;;;5055670;28;20103;-71
2023/01/12 15:12:23;;;;;;;2.72;1.65;;;;;;;;;;5058526;28;20053;-71
2023/01/12 15:14:49;;;;;;;2.75;1.75;;;;;;;;;;5043964;28;20046;-70
2023/01/12 15:25:36;;;;;;;2.83;1.50;;;;;;;;;;5086952;28;20131;-73
2023/01/12 15:28:03;;;;;;;1.70;1.23;;;;;;;;;;5077892;28;20588;-71
2023/01/12 15:30:32;;;;;;;2.92;1.10;;;;;;;;;;5085648;28;20122;-71
2023/01/12 15:32:58;;;;;;;2.10;0.90;;;;;;;;;;5073793;28;20489;-70
2023/01/12 15:35:26;;;;;;;1.42;1.10;;;;;;;;;;5085911;28;20834;-70
2023/01/12 15:37:53;;;;;;;1.20;1.10;;;;;;;;;;5084882;28;20129;-70
2023/01/12 15:40:20;;;;;;;2.83;1.27;;;;;;;;;;5084919;28;20059;-71
2023/01/12 15:42:46;;;;;;;1.20;1.10;;;;;;;;;;5087976;28;20383;-70
2023/01/12 15:45:13;;;;;;;1.15;1.00;;;;;;;;;;5085683;28;20049;-70
2023/01/12 15:47:39;;;;;;;1.63;1.50;;;;;;;;;;5084782;28;20055;-71
2023/01/12 15:50:06;;;;;;;1.17;1.08;;;;;;;;;;5084278;28;20048;-72